sensor_id;sensor_type;location;lat;lon;timestamp;P1;durP1;ratioP1;P2;durP2;ratioP2
6547;SDS011;3307;52.416;16.862;2022-12-20T00:01:20;45.20;;;26.83;;
6547;SDS011;3307;52.416;16.862;2022-12-20T00:03:50;41.65;;;25.80;;
6547;SDS011;3307;52.416;16.862;2022-12-20T00:06:17;42.55;;;25.70;;
6547;SDS011;3307;52.416;16.862;2022-12-20T00:08:43;42.93;;;27.50;;
6547;SDS011;3307;52.416;16.862;2022-12-20T00:11:09;39.25;;;25.25;;
6547;SDS011;3307;52.416;16.862;2022-12-20T00:13:35;36.40;;;23.57;;
6547;SDS011;3307;52.416;16.862;2022-12-20T00:18:37;40.65;;;26.08;;
6547;SDS011;3307;52.416;16.862;2022-12-20T00:21:04;38.17;;;25.73;;
6547;SDS011;3307;52.416;16.862;2022-12-20T00:23:31;39.72;;;25.17;;
6547;SDS011;3307;52.416;16.862;2022-12-20T00:26:03;44.20;;;26.13;;
6547;SDS011;3307;52.416;16.862;2022-12-20T00:28:29;39.83;;;26.67;;
6547;SDS011;3307;52.416;16.862;2022-12-20T00:30:55;39.15;;;25.33;;
6547;SDS011;3307;52.416;16.862;2022-12-20T00:33:21;43.03;;;27.97;;
6547;SDS011;3307;52.416;16.862;2022-12-20T00:35:46;41.27;;;25.00;;
6547;SDS011;3307;52.416;16.862;2022-12-20T00:38:11;39.77;;;25.77;;
6547;SDS011;3307;52.416;16.862;2022-12-20T00:40:37;37.63;;;25.00;;
6547;SDS011;3307;52.416;16.862;2022-12-20T00:43:03;42.38;;;24.98;;
6547;SDS011;3307;52.416;16.862;2022-12-20T00:45:28;37.67;;;24.30;;
6547;SDS011;3307;52.416;16.862;2022-12-20T00:47:54;48.87;;;26.13;;
6547;SDS011;3307;52.416;16.862;2022-12-20T00:50:19;36.70;;;25.13;;
6547;SDS011;3307;52.416;16.862;2022-12-20T00:52:45;40.20;;;25.10;;
6547;SDS011;3307;52.416;16.862;2022-12-20T00:55:10;39.70;;;25.57;;
6547;SDS011;3307;52.416;16.862;2022-12-20T00:57:35;35.87;;;23.00;;
6547;SDS011;3307;52.416;16.862;2022-12-20T01:00:01;42.40;;;24.97;;
6547;SDS011;3307;52.416;16.862;2022-12-20T01:02:26;38.60;;;24.63;;
6547;SDS011;3307;52.416;16.862;2022-12-20T01:04:51;39.20;;;24.40;;
6547;SDS011;3307;52.416;16.862;2022-12-20T01:07:17;34.80;;;21.70;;
6547;SDS011;3307;52.416;16.862;2022-12-20T01:09:43;39.90;;;22.42;;
6547;SDS011;3307;52.416;16.862;2022-12-20T01:12:08;38.40;;;24.50;;
6547;SDS011;3307;52.416;16.862;2022-12-20T01:14:35;39.80;;;21.90;;
6547;SDS011;3307;52.416;16.862;2022-12-20T01:17:00;34.57;;;22.60;;
6547;SDS011;3307;52.416;16.862;2022-12-20T01:19:26;38.50;;;25.53;;
6547;SDS011;3307;52.416;16.862;2022-12-20T01:21:51;36.83;;;22.20;;
6547;SDS011;3307;52.416;16.862;2022-12-20T01:24:17;37.40;;;22.37;;
6547;SDS011;3307;52.416;16.862;2022-12-20T01:26:44;34.20;;;20.27;;
6547;SDS011;3307;52.416;16.862;2022-12-20T01:29:10;37.03;;;23.85;;
6547;SDS011;3307;52.416;16.862;2022-12-20T01:31:36;38.03;;;22.60;;
6547;SDS011;3307;52.416;16.862;2022-12-20T01:34:01;45.03;;;26.67;;
6547;SDS011;3307;52.416;16.862;2022-12-20T01:36:31;38.43;;;22.33;;
6547;SDS011;3307;52.416;16.862;2022-12-20T01:39:03;36.95;;;26.40;;
6547;SDS011;3307;52.416;16.862;2022-12-20T01:41:31;38.45;;;25.92;;
6547;SDS011;3307;52.416;16.862;2022-12-20T01:43:58;40.42;;;26.27;;
6547;SDS011;3307;52.416;16.862;2022-12-20T01:46:29;41.17;;;24.52;;
6547;SDS011;3307;52.416;16.862;2022-12-20T01:51:24;34.00;;;22.17;;
6547;SDS011;3307;52.416;16.862;2022-12-20T01:53:51;34.53;;;23.77;;
6547;SDS011;3307;52.416;16.862;2022-12-20T01:56:20;37.50;;;25.15;;
6547;SDS011;3307;52.416;16.862;2022-12-20T01:58:45;28.33;;;18.60;;
6547;SDS011;3307;52.416;16.862;2022-12-20T02:01:12;35.58;;;23.10;;
6547;SDS011;3307;52.416;16.862;2022-12-20T02:03:38;35.47;;;23.20;;
6547;SDS011;3307;52.416;16.862;2022-12-20T02:06:14;33.90;;;22.80;;
6547;SDS011;3307;52.416;16.862;2022-12-20T02:08:42;38.28;;;24.02;;
6547;SDS011;3307;52.416;16.862;2022-12-20T02:11:12;35.03;;;23.77;;
6547;SDS011;3307;52.416;16.862;2022-12-20T02:16:48;34.88;;;20.40;;
6547;SDS011;3307;52.416;16.862;2022-12-20T02:19:46;38.55;;;24.85;;
6547;SDS011;3307;52.416;16.862;2022-12-20T02:30:40;32.42;;;22.63;;
6547;SDS011;3307;52.416;16.862;2022-12-20T02:33:10;37.63;;;24.38;;
6547;SDS011;3307;52.416;16.862;2022-12-20T02:35:37;34.65;;;23.95;;
6547;SDS011;3307;52.416;16.862;2022-12-20T02:38:22;31.33;;;21.55;;
6547;SDS011;3307;52.416;16.862;2022-12-20T02:40:48;33.92;;;23.70;;
6547;SDS011;3307;52.416;16.862;2022-12-20T02:43:15;35.90;;;21.85;;
6547;SDS011;3307;52.416;16.862;2022-12-20T02:45:59;32.42;;;21.00;;
6547;SDS011;3307;52.416;16.862;2022-12-20T02:48:27;36.78;;;20.88;;
6547;SDS011;3307;52.416;16.862;2022-12-20T02:50:55;36.60;;;22.63;;
6547;SDS011;3307;52.416;16.862;2022-12-20T02:53:21;34.70;;;21.65;;
6547;SDS011;3307;52.416;16.862;2022-12-20T02:55:49;34.40;;;21.67;;
6547;SDS011;3307;52.416;16.862;2022-12-20T02:58:31;34.63;;;22.75;;
6547;SDS011;3307;52.416;16.862;2022-12-20T03:01:09;35.85;;;23.08;;
6547;SDS011;3307;52.416;16.862;2022-12-20T03:03:36;30.48;;;20.98;;
6547;SDS011;3307;52.416;16.862;2022-12-20T03:06:02;31.00;;;19.30;;
6547;SDS011;3307;52.416;16.862;2022-12-20T03:08:28;31.00;;;21.30;;
6547;SDS011;3307;52.416;16.862;2022-12-20T03:10:53;33.00;;;21.70;;
6547;SDS011;3307;52.416;16.862;2022-12-20T03:13:19;29.40;;;21.67;;
6547;SDS011;3307;52.416;16.862;2022-12-20T03:15:46;34.25;;;20.60;;
6547;SDS011;3307;52.416;16.862;2022-12-20T03:18:11;29.70;;;20.50;;
6547;SDS011;3307;52.416;16.862;2022-12-20T03:20:37;30.33;;;21.10;;
6547;SDS011;3307;52.416;16.862;2022-12-20T03:23:03;33.53;;;21.40;;
6547;SDS011;3307;52.416;16.862;2022-12-20T03:25:28;33.47;;;21.53;;
6547;SDS011;3307;52.416;16.862;2022-12-20T03:27:54;34.77;;;21.57;;
6547;SDS011;3307;52.416;16.862;2022-12-20T03:30:19;33.10;;;18.97;;
6547;SDS011;3307;52.416;16.862;2022-12-20T03:32:45;31.43;;;20.63;;
6547;SDS011;3307;52.416;16.862;2022-12-20T03:35:10;35.30;;;22.10;;
6547;SDS011;3307;52.416;16.862;2022-12-20T03:37:35;30.87;;;19.00;;
6547;SDS011;3307;52.416;16.862;2022-12-20T03:40:01;28.67;;;20.40;;
6547;SDS011;3307;52.416;16.862;2022-12-20T03:42:27;26.63;;;19.63;;
6547;SDS011;3307;52.416;16.862;2022-12-20T03:44:52;31.03;;;20.20;;
6547;SDS011;3307;52.416;16.862;2022-12-20T03:47:17;33.27;;;21.17;;
6547;SDS011;3307;52.416;16.862;2022-12-20T03:49:43;26.10;;;18.63;;
6547;SDS011;3307;52.416;16.862;2022-12-20T03:52:12;28.90;;;19.23;;
6547;SDS011;3307;52.416;16.862;2022-12-20T03:54:37;30.48;;;20.20;;
6547;SDS011;3307;52.416;16.862;2022-12-20T03:57:03;28.03;;;18.67;;
6547;SDS011;3307;52.416;16.862;2022-12-20T03:59:29;27.27;;;18.83;;
6547;SDS011;3307;52.416;16.862;2022-12-20T04:01:54;28.53;;;19.47;;
6547;SDS011;3307;52.416;16.862;2022-12-20T04:04:20;28.73;;;18.30;;
6547;SDS011;3307;52.416;16.862;2022-12-20T04:06:45;28.80;;;19.37;;
6547;SDS011;3307;52.416;16.862;2022-12-20T04:09:10;32.93;;;20.40;;
6547;SDS011;3307;52.416;16.862;2022-12-20T04:11:36;32.67;;;20.57;;
6547;SDS011;3307;52.416;16.862;2022-12-20T04:14:01;26.20;;;18.80;;
6547;SDS011;3307;52.416;16.862;2022-12-20T04:16:27;27.53;;;18.87;;
6547;SDS011;3307;52.416;16.862;2022-12-20T04:18:53;29.70;;;20.67;;
6547;SDS011;3307;52.416;16.862;2022-12-20T04:21:26;31.90;;;18.80;;
6547;SDS011;3307;52.416;16.862;2022-12-20T04:23:53;23.27;;;17.70;;
6547;SDS011;3307;52.416;16.862;2022-12-20T04:26:18;27.97;;;19.70;;
6547;SDS011;3307;52.416;16.862;2022-12-20T04:28:44;27.10;;;18.40;;
6547;SDS011;3307;52.416;16.862;2022-12-20T04:31:09;27.70;;;17.77;;
6547;SDS011;3307;52.416;16.862;2022-12-20T04:33:35;27.13;;;17.70;;
6547;SDS011;3307;52.416;16.862;2022-12-20T04:36:00;29.87;;;19.70;;
6547;SDS011;3307;52.416;16.862;2022-12-20T04:38:26;29.03;;;19.43;;
6547;SDS011;3307;52.416;16.862;2022-12-20T04:40:52;25.73;;;16.67;;
6547;SDS011;3307;52.416;16.862;2022-12-20T04:43:18;26.65;;;17.15;;
6547;SDS011;3307;52.416;16.862;2022-12-20T04:45:46;29.10;;;18.23;;
6547;SDS011;3307;52.416;16.862;2022-12-20T04:48:12;29.45;;;18.45;;
6547;SDS011;3307;52.416;16.862;2022-12-20T04:50:37;27.10;;;19.20;;
6547;SDS011;3307;52.416;16.862;2022-12-20T04:53:03;27.37;;;20.43;;
6547;SDS011;3307;52.416;16.862;2022-12-20T04:55:47;25.40;;;17.27;;
6547;SDS011;3307;52.416;16.862;2022-12-20T04:58:13;26.63;;;18.23;;
6547;SDS011;3307;52.416;16.862;2022-12-20T05:00:38;28.30;;;18.30;;
6547;SDS011;3307;52.416;16.862;2022-12-20T05:03:03;28.73;;;19.50;;
6547;SDS011;3307;52.416;16.862;2022-12-20T05:05:29;25.20;;;16.30;;
6547;SDS011;3307;52.416;16.862;2022-12-20T05:07:54;22.50;;;15.87;;
6547;SDS011;3307;52.416;16.862;2022-12-20T05:10:20;25.77;;;17.00;;
6547;SDS011;3307;52.416;16.862;2022-12-20T05:12:45;24.00;;;17.60;;
6547;SDS011;3307;52.416;16.862;2022-12-20T05:15:11;33.77;;;18.07;;
6547;SDS011;3307;52.416;16.862;2022-12-20T05:17:36;24.03;;;16.93;;
6547;SDS011;3307;52.416;16.862;2022-12-20T05:20:02;21.33;;;15.10;;
6547;SDS011;3307;52.416;16.862;2022-12-20T05:22:28;29.17;;;17.83;;
6547;SDS011;3307;52.416;16.862;2022-12-20T05:25:13;26.00;;;17.52;;
6547;SDS011;3307;52.416;16.862;2022-12-20T05:27:56;25.20;;;19.50;;
6547;SDS011;3307;52.416;16.862;2022-12-20T05:30:22;25.70;;;18.43;;
6547;SDS011;3307;52.416;16.862;2022-12-20T05:32:48;28.52;;;18.90;;
6547;SDS011;3307;52.416;16.862;2022-12-20T05:35:14;26.90;;;18.43;;
6547;SDS011;3307;52.416;16.862;2022-12-20T05:37:39;29.43;;;18.43;;
6547;SDS011;3307;52.416;16.862;2022-12-20T05:40:05;27.00;;;17.77;;
6547;SDS011;3307;52.416;16.862;2022-12-20T05:42:30;30.70;;;16.57;;
6547;SDS011;3307;52.416;16.862;2022-12-20T05:44:56;25.90;;;18.17;;
6547;SDS011;3307;52.416;16.862;2022-12-20T05:47:21;29.93;;;18.77;;
6547;SDS011;3307;52.416;16.862;2022-12-20T05:49:47;30.33;;;18.10;;
6547;SDS011;3307;52.416;16.862;2022-12-20T05:52:12;26.33;;;17.20;;
6547;SDS011;3307;52.416;16.862;2022-12-20T05:54:38;28.70;;;18.87;;
6547;SDS011;3307;52.416;16.862;2022-12-20T05:57:03;24.87;;;19.17;;
6547;SDS011;3307;52.416;16.862;2022-12-20T05:59:29;32.50;;;19.00;;
6547;SDS011;3307;52.416;16.862;2022-12-20T06:01:54;25.33;;;18.83;;
6547;SDS011;3307;52.416;16.862;2022-12-20T06:04:19;34.07;;;22.63;;
6547;SDS011;3307;52.416;16.862;2022-12-20T06:06:45;31.23;;;21.80;;
6547;SDS011;3307;52.416;16.862;2022-12-20T06:09:10;36.70;;;23.27;;
6547;SDS011;3307;52.416;16.862;2022-12-20T06:11:36;36.60;;;22.73;;
6547;SDS011;3307;52.416;16.862;2022-12-20T06:14:01;31.57;;;22.20;;
6547;SDS011;3307;52.416;16.862;2022-12-20T06:16:26;29.27;;;21.07;;
6547;SDS011;3307;52.416;16.862;2022-12-20T06:18:52;30.60;;;22.17;;
6547;SDS011;3307;52.416;16.862;2022-12-20T06:21:18;25.60;;;20.20;;
6547;SDS011;3307;52.416;16.862;2022-12-20T06:23:43;29.23;;;19.67;;
6547;SDS011;3307;52.416;16.862;2022-12-20T06:26:08;30.50;;;20.33;;
6547;SDS011;3307;52.416;16.862;2022-12-20T06:28:34;28.60;;;19.13;;
6547;SDS011;3307;52.416;16.862;2022-12-20T06:31:06;29.67;;;19.05;;
6547;SDS011;3307;52.416;16.862;2022-12-20T06:33:32;30.10;;;20.85;;
6547;SDS011;3307;52.416;16.862;2022-12-20T06:36:20;28.48;;;19.92;;
6547;SDS011;3307;52.416;16.862;2022-12-20T06:38:45;28.60;;;20.60;;
6547;SDS011;3307;52.416;16.862;2022-12-20T06:41:10;34.73;;;22.73;;
6547;SDS011;3307;52.416;16.862;2022-12-20T06:43:36;30.30;;;21.30;;
6547;SDS011;3307;52.416;16.862;2022-12-20T06:46:01;35.23;;;25.00;;
6547;SDS011;3307;52.416;16.862;2022-12-20T06:48:27;33.67;;;24.83;;
6547;SDS011;3307;52.416;16.862;2022-12-20T06:50:52;30.67;;;21.07;;
6547;SDS011;3307;52.416;16.862;2022-12-20T06:53:17;36.00;;;22.60;;
6547;SDS011;3307;52.416;16.862;2022-12-20T06:55:45;29.80;;;19.87;;
6547;SDS011;3307;52.416;16.862;2022-12-20T06:58:11;32.10;;;24.30;;
6547;SDS011;3307;52.416;16.862;2022-12-20T07:00:37;34.75;;;23.15;;
6547;SDS011;3307;52.416;16.862;2022-12-20T07:03:02;34.27;;;23.60;;
6547;SDS011;3307;52.416;16.862;2022-12-20T07:05:28;35.53;;;24.37;;
6547;SDS011;3307;52.416;16.862;2022-12-20T07:07:53;33.20;;;23.03;;
6547;SDS011;3307;52.416;16.862;2022-12-20T07:10:19;28.53;;;20.67;;
6547;SDS011;3307;52.416;16.862;2022-12-20T07:12:44;31.30;;;22.33;;
6547;SDS011;3307;52.416;16.862;2022-12-20T07:15:09;29.40;;;20.20;;
6547;SDS011;3307;52.416;16.862;2022-12-20T07:17:35;31.87;;;20.50;;
6547;SDS011;3307;52.416;16.862;2022-12-20T07:20:00;28.43;;;20.33;;
6547;SDS011;3307;52.416;16.862;2022-12-20T07:22:26;30.97;;;21.80;;
6547;SDS011;3307;52.416;16.862;2022-12-20T07:24:51;32.73;;;21.63;;
6547;SDS011;3307;52.416;16.862;2022-12-20T07:27:16;29.23;;;20.83;;
6547;SDS011;3307;52.416;16.862;2022-12-20T07:29:42;28.23;;;19.03;;
6547;SDS011;3307;52.416;16.862;2022-12-20T07:32:07;28.90;;;21.67;;
6547;SDS011;3307;52.416;16.862;2022-12-20T07:34:33;28.80;;;18.00;;
6547;SDS011;3307;52.416;16.862;2022-12-20T07:37:00;26.92;;;19.10;;
6547;SDS011;3307;52.416;16.862;2022-12-20T07:39:26;28.87;;;19.70;;
6547;SDS011;3307;52.416;16.862;2022-12-20T07:41:54;28.03;;;18.60;;
6547;SDS011;3307;52.416;16.862;2022-12-20T07:44:20;28.30;;;19.90;;
6547;SDS011;3307;52.416;16.862;2022-12-20T07:46:46;30.80;;;21.27;;
6547;SDS011;3307;52.416;16.862;2022-12-20T07:49:12;33.23;;;21.93;;
6547;SDS011;3307;52.416;16.862;2022-12-20T07:51:39;33.83;;;24.67;;
6547;SDS011;3307;52.416;16.862;2022-12-20T07:54:11;30.77;;;23.38;;
6547;SDS011;3307;52.416;16.862;2022-12-20T07:56:40;34.65;;;25.52;;
6547;SDS011;3307;52.416;16.862;2022-12-20T07:59:08;33.55;;;23.40;;
6547;SDS011;3307;52.416;16.862;2022-12-20T08:01:34;35.22;;;25.27;;
6547;SDS011;3307;52.416;16.862;2022-12-20T08:04:04;32.70;;;22.70;;
6547;SDS011;3307;52.416;16.862;2022-12-20T08:06:35;41.58;;;25.73;;
6547;SDS011;3307;52.416;16.862;2022-12-20T08:09:02;40.22;;;27.58;;
6547;SDS011;3307;52.416;16.862;2022-12-20T08:11:29;37.95;;;27.30;;
6547;SDS011;3307;52.416;16.862;2022-12-20T08:13:55;39.05;;;26.30;;
6547;SDS011;3307;52.416;16.862;2022-12-20T08:16:21;38.43;;;28.33;;
6547;SDS011;3307;52.416;16.862;2022-12-20T08:18:46;44.50;;;30.87;;
6547;SDS011;3307;52.416;16.862;2022-12-20T08:21:11;39.03;;;25.17;;
6547;SDS011;3307;52.416;16.862;2022-12-20T08:23:38;43.83;;;29.02;;
6547;SDS011;3307;52.416;16.862;2022-12-20T08:26:04;42.53;;;28.63;;
6547;SDS011;3307;52.416;16.862;2022-12-20T08:28:29;41.83;;;30.60;;
6547;SDS011;3307;52.416;16.862;2022-12-20T08:31:01;36.93;;;27.70;;
6547;SDS011;3307;52.416;16.862;2022-12-20T08:33:27;40.25;;;29.27;;
6547;SDS011;3307;52.416;16.862;2022-12-20T08:35:57;44.57;;;31.83;;
6547;SDS011;3307;52.416;16.862;2022-12-20T08:38:24;46.20;;;33.50;;
6547;SDS011;3307;52.416;16.862;2022-12-20T08:40:50;43.30;;;33.47;;
6547;SDS011;3307;52.416;16.862;2022-12-20T08:43:16;43.20;;;31.73;;
6547;SDS011;3307;52.416;16.862;2022-12-20T08:45:41;36.10;;;26.27;;
6547;SDS011;3307;52.416;16.862;2022-12-20T08:48:06;41.27;;;28.80;;
6547;SDS011;3307;52.416;16.862;2022-12-20T08:50:32;42.07;;;29.47;;
6547;SDS011;3307;52.416;16.862;2022-12-20T08:52:57;40.53;;;27.10;;
6547;SDS011;3307;52.416;16.862;2022-12-20T08:55:23;36.60;;;27.03;;
6547;SDS011;3307;52.416;16.862;2022-12-20T08:57:48;43.90;;;29.90;;
6547;SDS011;3307;52.416;16.862;2022-12-20T09:00:13;43.10;;;30.50;;
6547;SDS011;3307;52.416;16.862;2022-12-20T09:02:39;41.43;;;30.10;;
6547;SDS011;3307;52.416;16.862;2022-12-20T09:05:05;43.60;;;28.85;;
6547;SDS011;3307;52.416;16.862;2022-12-20T09:07:31;39.03;;;29.73;;
6547;SDS011;3307;52.416;16.862;2022-12-20T09:09:56;39.53;;;27.07;;
6547;SDS011;3307;52.416;16.862;2022-12-20T09:12:21;43.53;;;29.30;;
6547;SDS011;3307;52.416;16.862;2022-12-20T09:14:47;41.10;;;28.27;;
6547;SDS011;3307;52.416;16.862;2022-12-20T09:17:12;41.60;;;28.00;;
6547;SDS011;3307;52.416;16.862;2022-12-20T09:19:38;38.73;;;28.90;;
6547;SDS011;3307;52.416;16.862;2022-12-20T09:22:03;36.37;;;26.23;;
6547;SDS011;3307;52.416;16.862;2022-12-20T09:24:29;36.83;;;26.13;;
6547;SDS011;3307;52.416;16.862;2022-12-20T09:26:54;38.10;;;28.17;;
6547;SDS011;3307;52.416;16.862;2022-12-20T09:29:19;33.07;;;26.10;;
6547;SDS011;3307;52.416;16.862;2022-12-20T09:31:45;35.33;;;24.77;;
6547;SDS011;3307;52.416;16.862;2022-12-20T09:34:10;36.93;;;25.67;;
6547;SDS011;3307;52.416;16.862;2022-12-20T09:36:36;37.57;;;24.00;;
6547;SDS011;3307;52.416;16.862;2022-12-20T09:39:02;29.45;;;22.40;;
6547;SDS011;3307;52.416;16.862;2022-12-20T09:41:30;36.13;;;25.73;;
6547;SDS011;3307;52.416;16.862;2022-12-20T09:44:24;37.30;;;25.42;;
6547;SDS011;3307;52.416;16.862;2022-12-20T09:46:53;32.03;;;24.98;;
6547;SDS011;3307;52.416;16.862;2022-12-20T09:49:21;39.17;;;31.02;;
6547;SDS011;3307;52.416;16.862;2022-12-20T09:54:49;50.53;;;37.88;;
6547;SDS011;3307;52.416;16.862;2022-12-20T09:59:54;48.92;;;36.80;;
6547;SDS011;3307;52.416;16.862;2022-12-20T10:02:22;49.67;;;38.63;;
6547;SDS011;3307;52.416;16.862;2022-12-20T10:04:49;41.88;;;30.80;;
6547;SDS011;3307;52.416;16.862;2022-12-20T10:26:04;39.58;;;28.63;;
6547;SDS011;3307;52.416;16.862;2022-12-20T10:28:34;40.55;;;27.75;;
6547;SDS011;3307;52.416;16.862;2022-12-20T10:31:04;44.38;;;31.80;;
6547;SDS011;3307;52.416;16.862;2022-12-20T10:33:31;41.55;;;29.98;;
6547;SDS011;3307;52.416;16.862;2022-12-20T10:36:39;42.30;;;28.77;;
6547;SDS011;3307;52.416;16.862;2022-12-20T10:38:53;41.35;;;28.27;;
6547;SDS011;3307;52.416;16.862;2022-12-20T10:41:21;40.97;;;28.42;;
6547;SDS011;3307;52.416;16.862;2022-12-20T10:46:20;44.08;;;31.80;;
6547;SDS011;3307;52.416;16.862;2022-12-20T10:48:46;40.77;;;29.33;;
6547;SDS011;3307;52.416;16.862;2022-12-20T10:51:19;39.45;;;27.48;;
6547;SDS011;3307;52.416;16.862;2022-12-20T10:56:26;38.53;;;28.75;;
6547;SDS011;3307;52.416;16.862;2022-12-20T11:01:27;39.50;;;27.43;;
6547;SDS011;3307;52.416;16.862;2022-12-20T11:06:48;36.40;;;25.52;;
6547;SDS011;3307;52.416;16.862;2022-12-20T11:14:46;38.90;;;26.10;;
6547;SDS011;3307;52.416;16.862;2022-12-20T11:27:54;36.90;;;25.02;;
6547;SDS011;3307;52.416;16.862;2022-12-20T11:33:30;30.42;;;22.88;;
6547;SDS011;3307;52.416;16.862;2022-12-20T11:43:46;31.80;;;24.10;;
6547;SDS011;3307;52.416;16.862;2022-12-20T11:46:26;30.23;;;22.80;;
6547;SDS011;3307;52.416;16.862;2022-12-20T11:52:08;35.03;;;24.33;;
6547;SDS011;3307;52.416;16.862;2022-12-20T11:57:22;31.48;;;24.88;;
6547;SDS011;3307;52.416;16.862;2022-12-20T11:59:52;35.00;;;26.33;;
6547;SDS011;3307;52.416;16.862;2022-12-20T12:02:39;36.45;;;25.92;;
6547;SDS011;3307;52.416;16.862;2022-12-20T12:05:26;40.25;;;23.75;;
6547;SDS011;3307;52.416;16.862;2022-12-20T12:08:00;34.30;;;25.05;;
6547;SDS011;3307;52.416;16.862;2022-12-20T12:10:33;40.67;;;25.90;;
6547;SDS011;3307;52.416;16.862;2022-12-20T12:13:10;36.47;;;26.60;;
6547;SDS011;3307;52.416;16.862;2022-12-20T12:18:29;38.80;;;25.92;;
6547;SDS011;3307;52.416;16.862;2022-12-20T12:21:05;36.80;;;26.58;;
6547;SDS011;3307;52.416;16.862;2022-12-20T12:26:32;38.67;;;29.60;;
6547;SDS011;3307;52.416;16.862;2022-12-20T12:29:00;41.25;;;29.30;;
6547;SDS011;3307;52.416;16.862;2022-12-20T12:32:14;39.15;;;27.35;;
6547;SDS011;3307;52.416;16.862;2022-12-20T12:44:42;36.05;;;22.45;;
6547;SDS011;3307;52.416;16.862;2022-12-20T12:53:11;38.17;;;27.08;;
6547;SDS011;3307;52.416;16.862;2022-12-20T13:00:59;36.75;;;26.40;;
6547;SDS011;3307;52.416;16.862;2022-12-20T13:11:29;39.67;;;27.08;;
6547;SDS011;3307;52.416;16.862;2022-12-20T13:37:50;53.75;;;37.53;;
6547;SDS011;3307;52.416;16.862;2022-12-20T13:45:51;64.77;;;43.50;;
6547;SDS011;3307;52.416;16.862;2022-12-20T13:48:24;58.20;;;39.75;;
6547;SDS011;3307;52.416;16.862;2022-12-20T13:50:53;49.67;;;36.05;;
6547;SDS011;3307;52.416;16.862;2022-12-20T13:53:20;56.80;;;40.42;;
6547;SDS011;3307;52.416;16.862;2022-12-20T13:55:47;56.40;;;39.65;;
6547;SDS011;3307;52.416;16.862;2022-12-20T14:00:45;59.50;;;44.78;;
6547;SDS011;3307;52.416;16.862;2022-12-20T14:03:24;62.28;;;43.65;;
6547;SDS011;3307;52.416;16.862;2022-12-20T14:06:02;62.35;;;44.72;;
6547;SDS011;3307;52.416;16.862;2022-12-20T14:08:32;55.22;;;40.65;;
6547;SDS011;3307;52.416;16.862;2022-12-20T14:11:14;65.55;;;44.70;;
6547;SDS011;3307;52.416;16.862;2022-12-20T14:13:50;60.85;;;39.90;;
6547;SDS011;3307;52.416;16.862;2022-12-20T14:16:17;56.85;;;38.97;;
6547;SDS011;3307;52.416;16.862;2022-12-20T14:21:21;53.35;;;35.50;;
6547;SDS011;3307;52.416;16.862;2022-12-20T14:23:48;48.20;;;35.05;;
6547;SDS011;3307;52.416;16.862;2022-12-20T14:26:15;57.95;;;39.25;;
6547;SDS011;3307;52.416;16.862;2022-12-20T14:28:43;67.78;;;43.67;;
6547;SDS011;3307;52.416;16.862;2022-12-20T14:36:31;64.73;;;41.80;;
6547;SDS011;3307;52.416;16.862;2022-12-20T14:38:57;61.40;;;41.70;;
6547;SDS011;3307;52.416;16.862;2022-12-20T14:44:20;61.28;;;41.85;;
6547;SDS011;3307;52.416;16.862;2022-12-20T14:46:51;64.93;;;45.20;;
6547;SDS011;3307;52.416;16.862;2022-12-20T14:51:46;64.20;;;43.65;;
6547;SDS011;3307;52.416;16.862;2022-12-20T14:54:22;63.47;;;43.67;;
6547;SDS011;3307;52.416;16.862;2022-12-20T14:56:50;70.38;;;41.70;;
6547;SDS011;3307;52.416;16.862;2022-12-20T14:59:19;64.27;;;41.07;;
6547;SDS011;3307;52.416;16.862;2022-12-20T15:01:50;58.92;;;39.83;;
6547;SDS011;3307;52.416;16.862;2022-12-20T15:04:20;61.77;;;39.60;;
6547;SDS011;3307;52.416;16.862;2022-12-20T15:07:27;59.22;;;40.60;;
6547;SDS011;3307;52.416;16.862;2022-12-20T15:09:55;55.15;;;41.05;;
6547;SDS011;3307;52.416;16.862;2022-12-20T15:12:21;63.27;;;43.50;;
6547;SDS011;3307;52.416;16.862;2022-12-20T15:14:46;59.37;;;41.00;;
6547;SDS011;3307;52.416;16.862;2022-12-20T15:17:12;60.97;;;43.10;;
6547;SDS011;3307;52.416;16.862;2022-12-20T15:19:39;68.18;;;43.97;;
6547;SDS011;3307;52.416;16.862;2022-12-20T15:22:05;67.93;;;46.30;;
6547;SDS011;3307;52.416;16.862;2022-12-20T15:24:37;66.82;;;47.08;;
6547;SDS011;3307;52.416;16.862;2022-12-20T15:27:02;70.03;;;41.20;;
6547;SDS011;3307;52.416;16.862;2022-12-20T15:29:28;61.90;;;41.60;;
6547;SDS011;3307;52.416;16.862;2022-12-20T15:32:04;70.23;;;45.67;;
6547;SDS011;3307;52.416;16.862;2022-12-20T15:34:52;72.15;;;45.60;;
6547;SDS011;3307;52.416;16.862;2022-12-20T15:37:17;70.83;;;45.60;;
6547;SDS011;3307;52.416;16.862;2022-12-20T15:39:43;70.93;;;48.47;;
6547;SDS011;3307;52.416;16.862;2022-12-20T15:42:09;74.87;;;48.00;;
6547;SDS011;3307;52.416;16.862;2022-12-20T15:44:38;61.97;;;45.13;;
6547;SDS011;3307;52.416;16.862;2022-12-20T15:47:03;74.00;;;48.30;;
6547;SDS011;3307;52.416;16.862;2022-12-20T15:49:29;77.23;;;51.13;;
6547;SDS011;3307;52.416;16.862;2022-12-20T15:51:56;79.10;;;52.95;;
6547;SDS011;3307;52.416;16.862;2022-12-20T15:56:49;76.80;;;43.53;;
6547;SDS011;3307;52.416;16.862;2022-12-20T15:59:15;102.88;;;81.70;;
6547;SDS011;3307;52.416;16.862;2022-12-20T16:01:40;70.00;;;49.30;;
6547;SDS011;3307;52.416;16.862;2022-12-20T16:04:07;87.77;;;60.53;;
6547;SDS011;3307;52.416;16.862;2022-12-20T16:06:37;76.50;;;45.75;;
6547;SDS011;3307;52.416;16.862;2022-12-20T16:09:03;68.77;;;41.60;;
6547;SDS011;3307;52.416;16.862;2022-12-20T16:11:29;64.53;;;42.50;;
6547;SDS011;3307;52.416;16.862;2022-12-20T16:13:56;68.17;;;43.20;;
6547;SDS011;3307;52.416;16.862;2022-12-20T16:16:40;69.50;;;41.22;;
6547;SDS011;3307;52.416;16.862;2022-12-20T16:19:06;64.82;;;43.45;;
6547;SDS011;3307;52.416;16.862;2022-12-20T16:21:33;63.28;;;42.72;;
6547;SDS011;3307;52.416;16.862;2022-12-20T16:24:00;70.45;;;44.65;;
6547;SDS011;3307;52.416;16.862;2022-12-20T16:26:26;63.80;;;40.55;;
6547;SDS011;3307;52.416;16.862;2022-12-20T16:28:52;69.43;;;41.30;;
6547;SDS011;3307;52.416;16.862;2022-12-20T16:33:47;64.40;;;41.40;;
6547;SDS011;3307;52.416;16.862;2022-12-20T16:36:13;52.63;;;37.45;;
6547;SDS011;3307;52.416;16.862;2022-12-20T16:38:38;63.90;;;41.50;;
6547;SDS011;3307;52.416;16.862;2022-12-20T16:41:11;70.47;;;53.80;;
6547;SDS011;3307;52.416;16.862;2022-12-20T16:43:38;62.15;;;43.80;;
6547;SDS011;3307;52.416;16.862;2022-12-20T16:46:03;167.03;;;105.87;;
6547;SDS011;3307;52.416;16.862;2022-12-20T16:48:29;71.73;;;49.87;;
6547;SDS011;3307;52.416;16.862;2022-12-20T16:50:55;65.77;;;44.47;;
6547;SDS011;3307;52.416;16.862;2022-12-20T16:53:21;64.65;;;46.65;;
6547;SDS011;3307;52.416;16.862;2022-12-20T16:55:46;79.77;;;50.43;;
6547;SDS011;3307;52.416;16.862;2022-12-20T16:58:12;77.07;;;57.23;;
6547;SDS011;3307;52.416;16.862;2022-12-20T17:00:37;80.90;;;52.67;;
6547;SDS011;3307;52.416;16.862;2022-12-20T17:03:03;78.37;;;57.70;;
6547;SDS011;3307;52.416;16.862;2022-12-20T17:05:29;69.63;;;52.60;;
6547;SDS011;3307;52.416;16.862;2022-12-20T17:07:56;71.03;;;49.58;;
6547;SDS011;3307;52.416;16.862;2022-12-20T17:10:23;67.68;;;49.28;;
6547;SDS011;3307;52.416;16.862;2022-12-20T17:12:49;68.80;;;47.35;;
6547;SDS011;3307;52.416;16.862;2022-12-20T17:15:16;68.33;;;48.70;;
6547;SDS011;3307;52.416;16.862;2022-12-20T17:17:49;155.05;;;88.93;;
6547;SDS011;3307;52.416;16.862;2022-12-20T17:20:15;74.80;;;46.20;;
6547;SDS011;3307;52.416;16.862;2022-12-20T17:22:42;126.15;;;72.88;;
6547;SDS011;3307;52.416;16.862;2022-12-20T17:25:25;66.60;;;44.50;;
6547;SDS011;3307;52.416;16.862;2022-12-20T17:27:52;92.60;;;56.30;;